sensor_id;sensor_type;location;lat;lon;timestamp;P1;durP1;ratioP1;P2;durP2;ratioP2
46721;SDS011;32455;43.430;23.136;2023-12-20T00:01:36;4.93;;;2.75;;
46721;SDS011;32455;43.430;23.136;2023-12-20T00:04:22;5.28;;;3.17;;
46721;SDS011;32455;43.430;23.136;2023-12-20T00:07:07;4.35;;;2.95;;
46721;SDS011;32455;43.430;23.136;2023-12-20T00:09:52;2.03;;;1.80;;
46721;SDS011;32455;43.430;23.136;2023-12-20T00:12:36;2.03;;;1.60;;
46721;SDS011;32455;43.430;23.136;2023-12-20T00:15:22;5.03;;;2.67;;
46721;SDS011;32455;43.430;23.136;2023-12-20T00:18:07;5.38;;;2.83;;
46721;SDS011;32455;43.430;23.136;2023-12-20T00:20:53;6.82;;;3.38;;
46721;SDS011;32455;43.430;23.136;2023-12-20T00:23:38;4.80;;;3.22;;
46721;SDS011;32455;43.430;23.136;2023-12-20T00:26:23;4.82;;;3.45;;
46721;SDS011;32455;43.430;23.136;2023-12-20T00:29:09;5.22;;;3.42;;
46721;SDS011;32455;43.430;23.136;2023-12-20T00:31:54;4.32;;;3.13;;
46721;SDS011;32455;43.430;23.136;2023-12-20T00:34:39;2.67;;;2.08;;
46721;SDS011;32455;43.430;23.136;2023-12-20T00:37:25;1.95;;;1.50;;
46721;SDS011;32455;43.430;23.136;2023-12-20T00:40:10;2.53;;;1.10;;
46721;SDS011;32455;43.430;23.136;2023-12-20T00:42:56;1.02;;;0.88;;
46721;SDS011;32455;43.430;23.136;2023-12-20T00:45:41;0.80;;;0.80;;
46721;SDS011;32455;43.430;23.136;2023-12-20T00:48:26;0.85;;;0.80;;
46721;SDS011;32455;43.430;23.136;2023-12-20T00:51:12;0.98;;;0.70;;
46721;SDS011;32455;43.430;23.136;2023-12-20T00:53:57;3.35;;;0.90;;
46721;SDS011;32455;43.430;23.136;2023-12-20T00:56:43;1.20;;;0.70;;
46721;SDS011;32455;43.430;23.136;2023-12-20T00:59:28;1.42;;;0.88;;
46721;SDS011;32455;43.430;23.136;2023-12-20T01:02:13;0.98;;;0.80;;
46721;SDS011;32455;43.430;23.136;2023-12-20T01:04:59;1.10;;;1.00;;
46721;SDS011;32455;43.430;23.136;2023-12-20T01:07:44;1.23;;;1.13;;
46721;SDS011;32455;43.430;23.136;2023-12-20T01:10:30;1.20;;;1.10;;
46721;SDS011;32455;43.430;23.136;2023-12-20T01:13:15;1.63;;;1.20;;
46721;SDS011;32455;43.430;23.136;2023-12-20T01:16:01;0.70;;;0.70;;
46721;SDS011;32455;43.430;23.136;2023-12-20T01:18:46;0.77;;;0.70;;
46721;SDS011;32455;43.430;23.136;2023-12-20T01:21:31;0.98;;;0.88;;
46721;SDS011;32455;43.430;23.136;2023-12-20T01:24:17;0.88;;;0.55;;
46721;SDS011;32455;43.430;23.136;2023-12-20T01:27:02;0.70;;;0.60;;
46721;SDS011;32455;43.430;23.136;2023-12-20T01:29:47;0.70;;;0.70;;
46721;SDS011;32455;43.430;23.136;2023-12-20T01:32:32;0.80;;;0.65;;
46721;SDS011;32455;43.430;23.136;2023-12-20T01:35:18;4.72;;;2.60;;
46721;SDS011;32455;43.430;23.136;2023-12-20T01:38:03;3.90;;;2.22;;
46721;SDS011;32455;43.430;23.136;2023-12-20T01:40:48;2.30;;;1.60;;
46721;SDS011;32455;43.430;23.136;2023-12-20T01:43:33;2.45;;;1.17;;
46721;SDS011;32455;43.430;23.136;2023-12-20T01:46:19;2.03;;;1.17;;
46721;SDS011;32455;43.430;23.136;2023-12-20T01:49:04;1.00;;;0.80;;
46721;SDS011;32455;43.430;23.136;2023-12-20T01:51:49;0.73;;;0.73;;
46721;SDS011;32455;43.430;23.136;2023-12-20T01:54:35;0.82;;;0.80;;
46721;SDS011;32455;43.430;23.136;2023-12-20T01:57:21;1.10;;;0.90;;
46721;SDS011;32455;43.430;23.136;2023-12-20T02:00:06;0.75;;;0.75;;
46721;SDS011;32455;43.430;23.136;2023-12-20T02:02:54;0.85;;;0.73;;
46721;SDS011;32455;43.430;23.136;2023-12-20T02:05:42;0.70;;;0.70;;
46721;SDS011;32455;43.430;23.136;2023-12-20T02:08:29;1.27;;;0.70;;
46721;SDS011;32455;43.430;23.136;2023-12-20T02:11:14;1.92;;;0.80;;
46721;SDS011;32455;43.430;23.136;2023-12-20T02:14:00;1.15;;;0.98;;
46721;SDS011;32455;43.430;23.136;2023-12-20T02:16:45;3.28;;;1.17;;
46721;SDS011;32455;43.430;23.136;2023-12-20T02:19:30;0.70;;;0.70;;
46721;SDS011;32455;43.430;23.136;2023-12-20T02:22:16;2.60;;;0.90;;
46721;SDS011;32455;43.430;23.136;2023-12-20T02:25:02;1.75;;;0.77;;
46721;SDS011;32455;43.430;23.136;2023-12-20T02:27:47;1.35;;;0.90;;
46721;SDS011;32455;43.430;23.136;2023-12-20T02:30:34;1.10;;;0.90;;
46721;SDS011;32455;43.430;23.136;2023-12-20T02:33:19;1.88;;;0.73;;
46721;SDS011;32455;43.430;23.136;2023-12-20T02:36:06;3.22;;;1.02;;
46721;SDS011;32455;43.430;23.136;2023-12-20T02:38:51;1.55;;;1.00;;
46721;SDS011;32455;43.430;23.136;2023-12-20T02:41:36;2.55;;;0.70;;
46721;SDS011;32455;43.430;23.136;2023-12-20T02:44:21;2.53;;;1.15;;
46721;SDS011;32455;43.430;23.136;2023-12-20T02:47:07;4.97;;;1.60;;
46721;SDS011;32455;43.430;23.136;2023-12-20T02:49:52;1.30;;;1.00;;
46721;SDS011;32455;43.430;23.136;2023-12-20T02:52:37;0.93;;;0.80;;
46721;SDS011;32455;43.430;23.136;2023-12-20T02:55:22;2.05;;;0.88;;
46721;SDS011;32455;43.430;23.136;2023-12-20T02:58:08;0.90;;;0.90;;
46721;SDS011;32455;43.430;23.136;2023-12-20T03:00:53;1.20;;;0.82;;
46721;SDS011;32455;43.430;23.136;2023-12-20T03:03:38;3.17;;;0.90;;
46721;SDS011;32455;43.430;23.136;2023-12-20T03:06:24;0.88;;;0.88;;
46721;SDS011;32455;43.430;23.136;2023-12-20T03:09:09;1.50;;;0.93;;
46721;SDS011;32455;43.430;23.136;2023-12-20T03:11:55;0.80;;;0.80;;
46721;SDS011;32455;43.430;23.136;2023-12-20T03:14:40;2.05;;;1.52;;
46721;SDS011;32455;43.430;23.136;2023-12-20T03:17:26;0.82;;;0.82;;
46721;SDS011;32455;43.430;23.136;2023-12-20T03:20:11;1.17;;;0.80;;
46721;SDS011;32455;43.430;23.136;2023-12-20T03:22:57;3.33;;;0.95;;
46721;SDS011;32455;43.430;23.136;2023-12-20T03:25:42;2.17;;;0.70;;
46721;SDS011;32455;43.430;23.136;2023-12-20T03:28:29;1.45;;;1.00;;
46721;SDS011;32455;43.430;23.136;2023-12-20T03:31:14;0.65;;;0.65;;
46721;SDS011;32455;43.430;23.136;2023-12-20T03:33:59;0.70;;;0.70;;
46721;SDS011;32455;43.430;23.136;2023-12-20T03:36:43;1.13;;;0.85;;
46721;SDS011;32455;43.430;23.136;2023-12-20T03:39:29;0.98;;;0.63;;
46721;SDS011;32455;43.430;23.136;2023-12-20T03:42:14;1.75;;;0.80;;
46721;SDS011;32455;43.430;23.136;2023-12-20T03:45:00;0.73;;;0.70;;
46721;SDS011;32455;43.430;23.136;2023-12-20T03:47:45;1.10;;;1.00;;
46721;SDS011;32455;43.430;23.136;2023-12-20T03:50:30;1.20;;;0.80;;
46721;SDS011;32455;43.430;23.136;2023-12-20T03:53:16;0.70;;;0.60;;
46721;SDS011;32455;43.430;23.136;2023-12-20T03:56:01;0.80;;;0.80;;
46721;SDS011;32455;43.430;23.136;2023-12-20T03:58:46;1.10;;;0.70;;
46721;SDS011;32455;43.430;23.136;2023-12-20T04:01:31;1.42;;;0.90;;
46721;SDS011;32455;43.430;23.136;2023-12-20T04:04:16;0.80;;;0.80;;
46721;SDS011;32455;43.430;23.136;2023-12-20T04:07:02;0.98;;;0.80;;
46721;SDS011;32455;43.430;23.136;2023-12-20T04:09:47;1.40;;;0.90;;
46721;SDS011;32455;43.430;23.136;2023-12-20T04:12:33;1.10;;;1.00;;
46721;SDS011;32455;43.430;23.136;2023-12-20T04:15:18;0.90;;;0.85;;
46721;SDS011;32455;43.430;23.136;2023-12-20T04:18:04;2.08;;;0.90;;
46721;SDS011;32455;43.430;23.136;2023-12-20T04:20:49;5.13;;;1.25;;
46721;SDS011;32455;43.430;23.136;2023-12-20T04:23:35;2.85;;;1.50;;
46721;SDS011;32455;43.430;23.136;2023-12-20T04:26:20;2.22;;;0.93;;
46721;SDS011;32455;43.430;23.136;2023-12-20T04:29:05;1.40;;;0.98;;
46721;SDS011;32455;43.430;23.136;2023-12-20T04:31:51;1.42;;;0.77;;
46721;SDS011;32455;43.430;23.136;2023-12-20T04:34:36;1.88;;;1.15;;
46721;SDS011;32455;43.430;23.136;2023-12-20T04:37:21;1.10;;;0.90;;
46721;SDS011;32455;43.430;23.136;2023-12-20T04:40:07;0.82;;;0.80;;
46721;SDS011;32455;43.430;23.136;2023-12-20T04:42:53;1.55;;;0.95;;
46721;SDS011;32455;43.430;23.136;2023-12-20T04:45:38;1.42;;;0.93;;
46721;SDS011;32455;43.430;23.136;2023-12-20T04:48:24;1.33;;;0.90;;
46721;SDS011;32455;43.430;23.136;2023-12-20T04:51:09;1.60;;;1.08;;
46721;SDS011;32455;43.430;23.136;2023-12-20T04:53:55;2.92;;;1.05;;
46721;SDS011;32455;43.430;23.136;2023-12-20T04:56:40;1.75;;;0.93;;
46721;SDS011;32455;43.430;23.136;2023-12-20T04:59:26;1.27;;;0.80;;
46721;SDS011;32455;43.430;23.136;2023-12-20T05:02:11;0.90;;;0.82;;
46721;SDS011;32455;43.430;23.136;2023-12-20T05:04:56;0.80;;;0.80;;
46721;SDS011;32455;43.430;23.136;2023-12-20T05:07:41;1.30;;;0.88;;
46721;SDS011;32455;43.430;23.136;2023-12-20T05:10:26;1.95;;;0.90;;
46721;SDS011;32455;43.430;23.136;2023-12-20T05:13:12;5.13;;;1.65;;
46721;SDS011;32455;43.430;23.136;2023-12-20T05:15:56;2.25;;;1.40;;
46721;SDS011;32455;43.430;23.136;2023-12-20T05:18:42;1.38;;;1.27;;
46721;SDS011;32455;43.430;23.136;2023-12-20T05:21:27;1.42;;;1.20;;
46721;SDS011;32455;43.430;23.136;2023-12-20T05:24:12;1.42;;;1.10;;
46721;SDS011;32455;43.430;23.136;2023-12-20T05:26:57;7.15;;;5.70;;
46721;SDS011;32455;43.430;23.136;2023-12-20T05:29:42;42.53;;;24.85;;
46721;SDS011;32455;43.430;23.136;2023-12-20T05:32:28;4.72;;;2.30;;
46721;SDS011;32455;43.430;23.136;2023-12-20T05:35:13;82.80;;;38.42;;
46721;SDS011;32455;43.430;23.136;2023-12-20T05:37:58;119.20;;;57.60;;
46721;SDS011;32455;43.430;23.136;2023-12-20T05:40:43;90.68;;;48.97;;
46721;SDS011;32455;43.430;23.136;2023-12-20T05:43:28;27.73;;;16.40;;
46721;SDS011;32455;43.430;23.136;2023-12-20T05:46:14;28.48;;;19.75;;
46721;SDS011;32455;43.430;23.136;2023-12-20T05:48:59;2.35;;;2.15;;
46721;SDS011;32455;43.430;23.136;2023-12-20T05:51:44;4.10;;;3.53;;
46721;SDS011;32455;43.430;23.136;2023-12-20T05:54:29;1.52;;;1.33;;
46721;SDS011;32455;43.430;23.136;2023-12-20T05:57:15;3.95;;;2.85;;
46721;SDS011;32455;43.430;23.136;2023-12-20T06:00:00;3.83;;;2.20;;
46721;SDS011;32455;43.430;23.136;2023-12-20T06:02:45;3.22;;;2.92;;
46721;SDS011;32455;43.430;23.136;2023-12-20T06:05:30;3.38;;;2.88;;
46721;SDS011;32455;43.430;23.136;2023-12-20T06:08:16;2.60;;;1.92;;
46721;SDS011;32455;43.430;23.136;2023-12-20T06:11:02;2.45;;;2.25;;
46721;SDS011;32455;43.430;23.136;2023-12-20T06:13:47;2.72;;;2.53;;
46721;SDS011;32455;43.430;23.136;2023-12-20T06:16:34;5.68;;;4.65;;
46721;SDS011;32455;43.430;23.136;2023-12-20T06:19:19;5.43;;;3.38;;
46721;SDS011;32455;43.430;23.136;2023-12-20T06:22:04;2.47;;;2.28;;
46721;SDS011;32455;43.430;23.136;2023-12-20T06:24:50;2.22;;;1.50;;
46721;SDS011;32455;43.430;23.136;2023-12-20T06:27:35;2.60;;;1.48;;
46721;SDS011;32455;43.430;23.136;2023-12-20T06:30:20;4.18;;;2.28;;
46721;SDS011;32455;43.430;23.136;2023-12-20T06:33:06;4.90;;;3.20;;
46721;SDS011;32455;43.430;23.136;2023-12-20T06:35:51;5.30;;;2.20;;
46721;SDS011;32455;43.430;23.136;2023-12-20T06:38:37;2.50;;;2.15;;
46721;SDS011;32455;43.430;23.136;2023-12-20T06:41:22;3.45;;;2.53;;
46721;SDS011;32455;43.430;23.136;2023-12-20T06:44:09;5.68;;;2.92;;
46721;SDS011;32455;43.430;23.136;2023-12-20T06:46:53;4.22;;;2.45;;
46721;SDS011;32455;43.430;23.136;2023-12-20T06:49:38;10.60;;;5.00;;
46721;SDS011;32455;43.430;23.136;2023-12-20T06:52:23;13.65;;;8.25;;
46721;SDS011;32455;43.430;23.136;2023-12-20T06:55:08;16.85;;;8.38;;
46721;SDS011;32455;43.430;23.136;2023-12-20T06:57:54;8.43;;;5.18;;
46721;SDS011;32455;43.430;23.136;2023-12-20T07:00:39;6.50;;;4.50;;
46721;SDS011;32455;43.430;23.136;2023-12-20T07:03:24;9.88;;;5.70;;
46721;SDS011;32455;43.430;23.136;2023-12-20T07:06:09;9.95;;;5.30;;
46721;SDS011;32455;43.430;23.136;2023-12-20T07:08:55;12.23;;;5.07;;
46721;SDS011;32455;43.430;23.136;2023-12-20T07:11:40;11.85;;;6.45;;
46721;SDS011;32455;43.430;23.136;2023-12-20T07:14:25;12.15;;;6.43;;
46721;SDS011;32455;43.430;23.136;2023-12-20T07:17:11;19.95;;;10.20;;
46721;SDS011;32455;43.430;23.136;2023-12-20T07:19:58;21.10;;;11.48;;
46721;SDS011;32455;43.430;23.136;2023-12-20T07:22:43;14.85;;;7.35;;
46721;SDS011;32455;43.430;23.136;2023-12-20T07:25:28;13.65;;;8.30;;
46721;SDS011;32455;43.430;23.136;2023-12-20T07:28:16;16.67;;;10.15;;
46721;SDS011;32455;43.430;23.136;2023-12-20T07:31:02;15.13;;;10.23;;
46721;SDS011;32455;43.430;23.136;2023-12-20T07:33:47;17.75;;;10.60;;
46721;SDS011;32455;43.430;23.136;2023-12-20T07:36:33;19.25;;;10.20;;
46721;SDS011;32455;43.430;23.136;2023-12-20T07:39:18;23.83;;;14.40;;
46721;SDS011;32455;43.430;23.136;2023-12-20T07:42:03;24.88;;;14.27;;
46721;SDS011;32455;43.430;23.136;2023-12-20T07:44:49;13.70;;;7.32;;
46721;SDS011;32455;43.430;23.136;2023-12-20T07:47:34;17.80;;;10.75;;
46721;SDS011;32455;43.430;23.136;2023-12-20T07:50:19;21.45;;;13.63;;
46721;SDS011;32455;43.430;23.136;2023-12-20T07:53:04;16.80;;;10.05;;
46721;SDS011;32455;43.430;23.136;2023-12-20T07:55:50;24.33;;;15.48;;
46721;SDS011;32455;43.430;23.136;2023-12-20T07:58:36;8.15;;;5.30;;
46721;SDS011;32455;43.430;23.136;2023-12-20T08:01:22;16.48;;;11.60;;
46721;SDS011;32455;43.430;23.136;2023-12-20T08:04:08;11.10;;;7.75;;
46721;SDS011;32455;43.430;23.136;2023-12-20T08:06:53;6.55;;;3.05;;
46721;SDS011;32455;43.430;23.136;2023-12-20T08:09:38;7.57;;;5.13;;
46721;SDS011;32455;43.430;23.136;2023-12-20T08:12:24;6.65;;;4.53;;
46721;SDS011;32455;43.430;23.136;2023-12-20T08:15:12;10.57;;;5.57;;
46721;SDS011;32455;43.430;23.136;2023-12-20T08:17:58;6.97;;;4.75;;
46721;SDS011;32455;43.430;23.136;2023-12-20T08:20:44;8.95;;;6.30;;
46721;SDS011;32455;43.430;23.136;2023-12-20T08:23:29;9.50;;;6.57;;
46721;SDS011;32455;43.430;23.136;2023-12-20T08:26:14;12.18;;;6.82;;
46721;SDS011;32455;43.430;23.136;2023-12-20T08:29:04;8.02;;;5.45;;
46721;SDS011;32455;43.430;23.136;2023-12-20T08:31:53;9.02;;;6.05;;
46721;SDS011;32455;43.430;23.136;2023-12-20T08:34:41;8.10;;;6.38;;
46721;SDS011;32455;43.430;23.136;2023-12-20T08:37:26;8.73;;;5.80;;
46721;SDS011;32455;43.430;23.136;2023-12-20T08:40:11;5.95;;;5.07;;
46721;SDS011;32455;43.430;23.136;2023-12-20T08:42:56;7.07;;;5.40;;
46721;SDS011;32455;43.430;23.136;2023-12-20T08:45:42;8.10;;;5.15;;
46721;SDS011;32455;43.430;23.136;2023-12-20T08:48:28;7.07;;;4.25;;
46721;SDS011;32455;43.430;23.136;2023-12-20T08:51:13;7.03;;;4.47;;
46721;SDS011;32455;43.430;23.136;2023-12-20T08:53:59;8.45;;;4.85;;
46721;SDS011;32455;43.430;23.136;2023-12-20T08:56:44;15.27;;;10.73;;
46721;SDS011;32455;43.430;23.136;2023-12-20T08:59:29;11.13;;;9.00;;
46721;SDS011;32455;43.430;23.136;2023-12-20T09:02:14;6.65;;;5.05;;
46721;SDS011;32455;43.430;23.136;2023-12-20T09:05:00;13.18;;;5.47;;
46721;SDS011;32455;43.430;23.136;2023-12-20T09:07:46;8.00;;;6.07;;
46721;SDS011;32455;43.430;23.136;2023-12-20T09:10:31;8.60;;;5.68;;
46721;SDS011;32455;43.430;23.136;2023-12-20T09:13:16;5.90;;;5.10;;
46721;SDS011;32455;43.430;23.136;2023-12-20T09:16:02;6.28;;;4.78;;
46721;SDS011;32455;43.430;23.136;2023-12-20T09:18:48;10.20;;;6.40;;
46721;SDS011;32455;43.430;23.136;2023-12-20T09:21:33;7.28;;;5.60;;
46721;SDS011;32455;43.430;23.136;2023-12-20T09:24:18;7.28;;;5.45;;
46721;SDS011;32455;43.430;23.136;2023-12-20T09:27:04;9.25;;;6.20;;
46721;SDS011;32455;43.430;23.136;2023-12-20T09:29:50;8.77;;;5.93;;
46721;SDS011;32455;43.430;23.136;2023-12-20T09:32:36;5.53;;;4.80;;
46721;SDS011;32455;43.430;23.136;2023-12-20T09:35:22;7.30;;;4.72;;
46721;SDS011;32455;43.430;23.136;2023-12-20T09:38:07;6.60;;;5.10;;
46721;SDS011;32455;43.430;23.136;2023-12-20T09:40:53;6.50;;;4.47;;
46721;SDS011;32455;43.430;23.136;2023-12-20T09:43:39;5.82;;;4.60;;
46721;SDS011;32455;43.430;23.136;2023-12-20T09:46:26;6.43;;;4.53;;
46721;SDS011;32455;43.430;23.136;2023-12-20T09:49:14;5.78;;;4.53;;
46721;SDS011;32455;43.430;23.136;2023-12-20T09:52:01;5.30;;;4.28;;
46721;SDS011;32455;43.430;23.136;2023-12-20T09:54:50;4.60;;;3.75;;
46721;SDS011;32455;43.430;23.136;2023-12-20T09:57:39;5.55;;;3.95;;
46721;SDS011;32455;43.430;23.136;2023-12-20T10:00:24;4.60;;;2.83;;
46721;SDS011;32455;43.430;23.136;2023-12-20T10:03:10;1.75;;;1.60;;
46721;SDS011;32455;43.430;23.136;2023-12-20T10:05:58;3.97;;;1.83;;
46721;SDS011;32455;43.430;23.136;2023-12-20T10:08:45;1.77;;;1.60;;
46721;SDS011;32455;43.430;23.136;2023-12-20T10:11:31;2.60;;;1.73;;
46721;SDS011;32455;43.430;23.136;2023-12-20T10:14:16;3.30;;;2.42;;
46721;SDS011;32455;43.430;23.136;2023-12-20T10:17:03;4.22;;;2.30;;
46721;SDS011;32455;43.430;23.136;2023-12-20T10:19:49;2.67;;;2.20;;
46721;SDS011;32455;43.430;23.136;2023-12-20T10:22:35;2.28;;;1.98;;
46721;SDS011;32455;43.430;23.136;2023-12-20T10:25:22;3.03;;;1.83;;
46721;SDS011;32455;43.430;23.136;2023-12-20T10:28:11;1.80;;;1.70;;
46721;SDS011;32455;43.430;23.136;2023-12-20T10:30:57;3.67;;;1.90;;
46721;SDS011;32455;43.430;23.136;2023-12-20T10:33:42;2.65;;;2.30;;
46721;SDS011;32455;43.430;23.136;2023-12-20T10:36:32;2.00;;;1.65;;
46721;SDS011;32455;43.430;23.136;2023-12-20T10:39:18;1.83;;;1.67;;
46721;SDS011;32455;43.430;23.136;2023-12-20T10:42:04;3.00;;;2.00;;
46721;SDS011;32455;43.430;23.136;2023-12-20T10:44:51;3.35;;;2.40;;
46721;SDS011;32455;43.430;23.136;2023-12-20T10:47:38;2.55;;;2.25;;
46721;SDS011;32455;43.430;23.136;2023-12-20T10:50:26;3.20;;;2.50;;
46721;SDS011;32455;43.430;23.136;2023-12-20T10:53:11;4.22;;;2.90;;
46721;SDS011;32455;43.430;23.136;2023-12-20T10:55:59;3.50;;;3.20;;
46721;SDS011;32455;43.430;23.136;2023-12-20T10:58:48;3.45;;;3.15;;
46721;SDS011;32455;43.430;23.136;2023-12-20T11:01:34;3.92;;;3.50;;
46721;SDS011;32455;43.430;23.136;2023-12-20T11:04:22;5.15;;;4.00;;
46721;SDS011;32455;43.430;23.136;2023-12-20T11:10:40;4.63;;;3.67;;
46721;SDS011;32455;43.430;23.136;2023-12-20T11:14:11;6.38;;;4.80;;
46721;SDS011;32455;43.430;23.136;2023-12-20T11:22:51;8.93;;;5.20;;
46721;SDS011;32455;43.430;23.136;2023-12-20T11:25:48;6.13;;;4.63;;
46721;SDS011;32455;43.430;23.136;2023-12-20T11:28:36;6.00;;;4.60;;
46721;SDS011;32455;43.430;23.136;2023-12-20T11:31:21;6.60;;;4.45;;
46721;SDS011;32455;43.430;23.136;2023-12-20T11:34:13;7.13;;;4.60;;
46721;SDS011;32455;43.430;23.136;2023-12-20T11:36:59;7.00;;;5.32;;
46721;SDS011;32455;43.430;23.136;2023-12-20T11:39:51;6.53;;;5.35;;
46721;SDS011;32455;43.430;23.136;2023-12-20T11:42:45;9.50;;;5.97;;
46721;SDS011;32455;43.430;23.136;2023-12-20T11:45:33;7.03;;;5.88;;
46721;SDS011;32455;43.430;23.136;2023-12-20T11:48:22;6.05;;;4.72;;
46721;SDS011;32455;43.430;23.136;2023-12-20T11:51:11;7.18;;;4.85;;
46721;SDS011;32455;43.430;23.136;2023-12-20T11:53:57;5.25;;;4.68;;
46721;SDS011;32455;43.430;23.136;2023-12-20T11:56:42;6.25;;;5.07;;
46721;SDS011;32455;43.430;23.136;2023-12-20T11:59:27;6.93;;;4.57;;
46721;SDS011;32455;43.430;23.136;2023-12-20T12:02:13;5.05;;;4.50;;
46721;SDS011;32455;43.430;23.136;2023-12-20T12:05:02;6.82;;;5.03;;
46721;SDS011;32455;43.430;23.136;2023-12-20T12:07:50;4.40;;;3.92;;
46721;SDS011;32455;43.430;23.136;2023-12-20T12:10:35;4.32;;;3.70;;
46721;SDS011;32455;43.430;23.136;2023-12-20T12:13:21;5.75;;;4.50;;
46721;SDS011;32455;43.430;23.136;2023-12-20T12:16:06;5.00;;;3.60;;
46721;SDS011;32455;43.430;23.136;2023-12-20T12:18:58;5.85;;;3.90;;
46721;SDS011;32455;43.430;23.136;2023-12-20T12:21:43;8.13;;;4.78;;
46721;SDS011;32455;43.430;23.136;2023-12-20T12:24:27;5.63;;;4.65;;
46721;SDS011;32455;43.430;23.136;2023-12-20T12:27:13;6.95;;;5.60;;
46721;SDS011;32455;43.430;23.136;2023-12-20T12:30:03;8.02;;;4.78;;
46721;SDS011;32455;43.430;23.136;2023-12-20T12:32:52;6.05;;;5.18;;
46721;SDS011;32455;43.430;23.136;2023-12-20T12:35:38;6.38;;;5.78;;
46721;SDS011;32455;43.430;23.136;2023-12-20T12:38:26;6.22;;;5.03;;
46721;SDS011;32455;43.430;23.136;2023-12-20T12:41:12;3.67;;;3.28;;
46721;SDS011;32455;43.430;23.136;2023-12-20T12:44:00;3.40;;;3.10;;
46721;SDS011;32455;43.430;23.136;2023-12-20T12:46:45;3.67;;;3.25;;
46721;SDS011;32455;43.430;23.136;2023-12-20T12:49:31;7.38;;;3.58;;
46721;SDS011;32455;43.430;23.136;2023-12-20T12:52:17;3.90;;;3.42;;
46721;SDS011;32455;43.430;23.136;2023-12-20T12:55:02;3.45;;;2.90;;
46721;SDS011;32455;43.430;23.136;2023-12-20T12:57:49;3.42;;;3.00;;
46721;SDS011;32455;43.430;23.136;2023-12-20T13:00:35;5.40;;;3.97;;
46721;SDS011;32455;43.430;23.136;2023-12-20T13:03:20;3.83;;;3.42;;
46721;SDS011;32455;43.430;23.136;2023-12-20T13:06:06;4.65;;;4.10;;
46721;SDS011;32455;43.430;23.136;2023-12-20T13:08:53;3.38;;;3.08;;
46721;SDS011;32455;43.430;23.136;2023-12-20T13:11:39;4.40;;;3.53;;
46721;SDS011;32455;43.430;23.136;2023-12-20T13:14:25;5.20;;;3.95;;
46721;SDS011;32455;43.430;23.136;2023-12-20T13:17:10;5.47;;;4.35;;
46721;SDS011;32455;43.430;23.136;2023-12-20T13:19:56;8.60;;;5.90;;
46721;SDS011;32455;43.430;23.136;2023-12-20T13:22:40;10.25;;;6.53;;
46721;SDS011;32455;43.430;23.136;2023-12-20T13:25:26;13.07;;;6.78;;
46721;SDS011;32455;43.430;23.136;2023-12-20T13:28:11;11.15;;;6.30;;
46721;SDS011;32455;43.430;23.136;2023-12-20T13:30:56;7.03;;;5.05;;
46721;SDS011;32455;43.430;23.136;2023-12-20T13:33:42;9.40;;;4.65;;
46721;SDS011;32455;43.430;23.136;2023-12-20T13:36:27;6.43;;;3.97;;
46721;SDS011;32455;43.430;23.136;2023-12-20T13:39:13;9.57;;;5.97;;
46721;SDS011;32455;43.430;23.136;2023-12-20T13:41:58;6.07;;;4.63;;
46721;SDS011;32455;43.430;23.136;2023-12-20T13:44:44;5.20;;;4.22;;
46721;SDS011;32455;43.430;23.136;2023-12-20T13:47:29;9.57;;;4.05;;
46721;SDS011;32455;43.430;23.136;2023-12-20T13:50:15;9.80;;;4.55;;
46721;SDS011;32455;43.430;23.136;2023-12-20T13:53:01;5.75;;;3.83;;
46721;SDS011;32455;43.430;23.136;2023-12-20T13:55:48;5.13;;;3.53;;
46721;SDS011;32455;43.430;23.136;2023-12-20T13:58:34;4.43;;;3.33;;
46721;SDS011;32455;43.430;23.136;2023-12-20T14:01:20;5.85;;;3.30;;
46721;SDS011;32455;43.430;23.136;2023-12-20T14:04:05;7.22;;;3.35;;
46721;SDS011;32455;43.430;23.136;2023-12-20T14:06:51;4.63;;;2.67;;
46721;SDS011;32455;43.430;23.136;2023-12-20T14:09:37;5.80;;;4.10;;
46721;SDS011;32455;43.430;23.136;2023-12-20T14:12:21;12.68;;;4.10;;
46721;SDS011;32455;43.430;23.136;2023-12-20T14:15:07;7.05;;;3.25;;
46721;SDS011;32455;43.430;23.136;2023-12-20T14:17:58;5.90;;;4.10;;
46721;SDS011;32455;43.430;23.136;2023-12-20T14:20:44;4.75;;;2.90;;
46721;SDS011;32455;43.430;23.136;2023-12-20T14:23:31;6.82;;;3.17;;
46721;SDS011;32455;43.430;23.136;2023-12-20T14:26:18;7.20;;;3.72;;
46721;SDS011;32455;43.430;23.136;2023-12-20T14:29:03;60.95;;;31.60;;
46721;SDS011;32455;43.430;23.136;2023-12-20T14:31:49;78.65;;;44.35;;
46721;SDS011;32455;43.430;23.136;2023-12-20T14:34:35;18.85;;;10.50;;
46721;SDS011;32455;43.430;23.136;2023-12-20T14:37:21;72.18;;;44.67;;
46721;SDS011;32455;43.430;23.136;2023-12-20T14:40:07;33.17;;;19.77;;
46721;SDS011;32455;43.430;23.136;2023-12-20T14:42:55;10.55;;;8.15;;
46721;SDS011;32455;43.430;23.136;2023-12-20T14:45:41;21.45;;;13.35;;
46721;SDS011;32455;43.430;23.136;2023-12-20T14:48:27;35.47;;;19.80;;
46721;SDS011;32455;43.430;23.136;2023-12-20T14:51:12;18.25;;;10.57;;
46721;SDS011;32455;43.430;23.136;2023-12-20T14:53:58;24.52;;;12.05;;
46721;SDS011;32455;43.430;23.136;2023-12-20T14:56:43;13.85;;;9.85;;
46721;SDS011;32455;43.430;23.136;2023-12-20T14:59:28;8.57;;;5.75;;
46721;SDS011;32455;43.430;23.136;2023-12-20T15:02:14;11.68;;;5.47;;
46721;SDS011;32455;43.430;23.136;2023-12-20T15:05:00;8.10;;;5.80;;
46721;SDS011;32455;43.430;23.136;2023-12-20T15:07:46;9.80;;;5.85;;
46721;SDS011;32455;43.430;23.136;2023-12-20T15:10:34;8.15;;;4.25;;
46721;SDS011;32455;43.430;23.136;2023-12-20T15:13:20;9.30;;;4.55;;
46721;SDS011;32455;43.430;23.136;2023-12-20T15:16:05;5.00;;;4.20;;
46721;SDS011;32455;43.430;23.136;2023-12-20T15:18:51;5.13;;;4.32;;
46721;SDS011;32455;43.430;23.136;2023-12-20T15:21:38;5.47;;;4.13;;
46721;SDS011;32455;43.430;23.136;2023-12-20T15:24:27;7.20;;;4.75;;
46721;SDS011;32455;43.430;23.136;2023-12-20T15:27:21;4.93;;;3.85;;
46721;SDS011;32455;43.430;23.136;2023-12-20T15:30:07;7.57;;;5.20;;
46721;SDS011;32455;43.430;23.136;2023-12-20T15:32:54;5.32;;;3.50;;
46721;SDS011;32455;43.430;23.136;2023-12-20T15:35:42;4.75;;;3.30;;
46721;SDS011;32455;43.430;23.136;2023-12-20T15:38:27;5.15;;;3.45;;
46721;SDS011;32455;43.430;23.136;2023-12-20T15:41:19;4.32;;;3.33;;
46721;SDS011;32455;43.430;23.136;2023-12-20T15:44:05;4.97;;;3.83;;
46721;SDS011;32455;43.430;23.136;2023-12-20T15:46:51;5.35;;;3.70;;
46721;SDS011;32455;43.430;23.136;2023-12-20T15:49:36;4.85;;;3.60;;
46721;SDS011;32455;43.430;23.136;2023-12-20T15:52:22;4.85;;;3.60;;
46721;SDS011;32455;43.430;23.136;2023-12-20T15:55:07;7.53;;;4.10;;
46721;SDS011;32455;43.430;23.136;2023-12-20T15:57:53;6.70;;;4.28;;
46721;SDS011;32455;43.430;23.136;2023-12-20T16:00:38;11.85;;;6.70;;
46721;SDS011;32455;43.430;23.136;2023-12-20T16:03:24;11.30;;;5.97;;
46721;SDS011;32455;43.430;23.136;2023-12-20T16:06:09;6.05;;;4.65;;
46721;SDS011;32455;43.430;23.136;2023-12-20T16:08:55;9.15;;;7.07;;
46721;SDS011;32455;43.430;23.136;2023-12-20T16:11:41;9.57;;;7.55;;
46721;SDS011;32455;43.430;23.136;2023-12-20T16:14:28;9.50;;;6.70;;
46721;SDS011;32455;43.430;23.136;2023-12-20T16:17:13;15.48;;;10.60;;
46721;SDS011;32455;43.430;23.136;2023-12-20T16:19:58;11.15;;;7.68;;
46721;SDS011;32455;43.430;23.136;2023-12-20T16:22:43;10.70;;;6.15;;
46721;SDS011;32455;43.430;23.136;2023-12-20T16:25:28;10.55;;;6.20;;
46721;SDS011;32455;43.430;23.136;2023-12-20T16:28:14;5.82;;;3.90;;
46721;SDS011;32455;43.430;23.136;2023-12-20T16:30:59;4.18;;;3.67;;